sensor_id;sensor_type;location;lat;lon;timestamp;P1;durP1;ratioP1;P2;durP2;ratioP2
19804;SDS011;10062;51.052;13.756;2022-08-11T00:02:01;7.13;;;3.37;;
19804;SDS011;10062;51.052;13.756;2022-08-11T00:04:34;10.97;;;3.60;;
19804;SDS011;10062;51.052;13.756;2022-08-11T00:07:09;6.87;;;3.90;;
19804;SDS011;10062;51.052;13.756;2022-08-11T00:09:41;6.13;;;3.33;;
19804;SDS011;10062;51.052;13.756;2022-08-11T00:12:14;6.07;;;3.20;;
19804;SDS011;10062;51.052;13.756;2022-08-11T00:14:46;6.27;;;3.80;;
19804;SDS011;10062;51.052;13.756;2022-08-11T00:17:28;9.47;;;3.77;;
19804;SDS011;10062;51.052;13.756;2022-08-11T00:20:05;8.93;;;4.00;;
19804;SDS011;10062;51.052;13.756;2022-08-11T00:22:41;8.80;;;3.40;;
19804;SDS011;10062;51.052;13.756;2022-08-11T00:25:15;5.17;;;3.50;;
19804;SDS011;10062;51.052;13.756;2022-08-11T00:27:49;5.03;;;3.20;;
19804;SDS011;10062;51.052;13.756;2022-08-11T00:30:20;9.87;;;3.90;;
19804;SDS011;10062;51.052;13.756;2022-08-11T00:32:53;8.27;;;3.53;;
19804;SDS011;10062;51.052;13.756;2022-08-11T00:35:28;7.87;;;3.50;;
19804;SDS011;10062;51.052;13.756;2022-08-11T00:38:03;6.47;;;3.80;;
19804;SDS011;10062;51.052;13.756;2022-08-11T00:40:38;4.47;;;3.13;;
19804;SDS011;10062;51.052;13.756;2022-08-11T00:43:19;6.77;;;3.30;;
19804;SDS011;10062;51.052;13.756;2022-08-11T00:46:06;6.90;;;3.43;;
19804;SDS011;10062;51.052;13.756;2022-08-11T00:48:44;6.07;;;3.50;;
19804;SDS011;10062;51.052;13.756;2022-08-11T00:51:35;9.37;;;3.63;;
19804;SDS011;10062;51.052;13.756;2022-08-11T00:54:24;8.27;;;3.87;;
19804;SDS011;10062;51.052;13.756;2022-08-11T00:57:12;6.50;;;3.50;;
19804;SDS011;10062;51.052;13.756;2022-08-11T01:00:10;7.30;;;3.57;;
19804;SDS011;10062;51.052;13.756;2022-08-11T01:02:46;7.60;;;3.90;;
19804;SDS011;10062;51.052;13.756;2022-08-11T01:05:48;9.70;;;3.53;;
19804;SDS011;10062;51.052;13.756;2022-08-11T01:08:36;7.23;;;3.30;;
19804;SDS011;10062;51.052;13.756;2022-08-11T01:21:34;6.30;;;3.73;;
19804;SDS011;10062;51.052;13.756;2022-08-11T01:24:58;8.27;;;3.40;;
19804;SDS011;10062;51.052;13.756;2022-08-11T01:31:24;10.37;;;3.60;;
19804;SDS011;10062;51.052;13.756;2022-08-11T01:34:18;5.20;;;3.17;;
19804;SDS011;10062;51.052;13.756;2022-08-11T01:37:14;5.23;;;3.63;;
19804;SDS011;10062;51.052;13.756;2022-08-11T01:40:19;9.40;;;3.83;;
19804;SDS011;10062;51.052;13.756;2022-08-11T01:43:17;7.47;;;3.63;;
19804;SDS011;10062;51.052;13.756;2022-08-11T01:46:20;6.83;;;4.00;;
19804;SDS011;10062;51.052;13.756;2022-08-11T01:49:00;6.70;;;3.67;;
19804;SDS011;10062;51.052;13.756;2022-08-11T01:51:44;7.83;;;4.37;;
19804;SDS011;10062;51.052;13.756;2022-08-11T01:54:36;8.30;;;4.40;;
19804;SDS011;10062;51.052;13.756;2022-08-11T01:57:16;11.93;;;4.60;;
19804;SDS011;10062;51.052;13.756;2022-08-11T02:00:02;9.30;;;4.30;;
19804;SDS011;10062;51.052;13.756;2022-08-11T02:02:39;9.57;;;4.70;;
19804;SDS011;10062;51.052;13.756;2022-08-11T02:05:25;8.70;;;4.10;;
19804;SDS011;10062;51.052;13.756;2022-08-11T02:08:20;7.13;;;4.27;;
19804;SDS011;10062;51.052;13.756;2022-08-11T02:11:08;7.23;;;3.47;;
19804;SDS011;10062;51.052;13.756;2022-08-11T02:14:09;6.63;;;4.23;;
19804;SDS011;10062;51.052;13.756;2022-08-11T02:17:02;11.47;;;4.40;;
19804;SDS011;10062;51.052;13.756;2022-08-11T02:19:48;7.07;;;4.00;;
19804;SDS011;10062;51.052;13.756;2022-08-11T02:22:45;9.83;;;4.43;;
19804;SDS011;10062;51.052;13.756;2022-08-11T02:25:43;9.03;;;3.93;;
19804;SDS011;10062;51.052;13.756;2022-08-11T02:28:28;10.97;;;4.77;;
19804;SDS011;10062;51.052;13.756;2022-08-11T02:31:10;9.77;;;4.33;;
19804;SDS011;10062;51.052;13.756;2022-08-11T02:34:07;9.33;;;4.50;;
19804;SDS011;10062;51.052;13.756;2022-08-11T02:36:48;6.80;;;3.73;;
19804;SDS011;10062;51.052;13.756;2022-08-11T02:39:27;6.53;;;3.80;;
19804;SDS011;10062;51.052;13.756;2022-08-11T02:42:09;7.43;;;3.87;;
19804;SDS011;10062;51.052;13.756;2022-08-11T02:44:59;10.73;;;4.70;;
19804;SDS011;10062;51.052;13.756;2022-08-11T02:47:45;6.37;;;3.80;;
19804;SDS011;10062;51.052;13.756;2022-08-11T02:50:39;7.43;;;4.20;;
19804;SDS011;10062;51.052;13.756;2022-08-11T02:53:28;6.57;;;3.67;;
19804;SDS011;10062;51.052;13.756;2022-08-11T02:56:07;7.47;;;4.13;;
19804;SDS011;10062;51.052;13.756;2022-08-11T02:58:47;6.50;;;3.80;;
19804;SDS011;10062;51.052;13.756;2022-08-11T03:01:42;7.03;;;3.90;;
19804;SDS011;10062;51.052;13.756;2022-08-11T03:04:20;8.90;;;3.87;;
19804;SDS011;10062;51.052;13.756;2022-08-11T03:06:58;9.63;;;4.20;;
19804;SDS011;10062;51.052;13.756;2022-08-11T03:09:41;5.97;;;4.10;;
19804;SDS011;10062;51.052;13.756;2022-08-11T03:12:22;8.97;;;4.20;;
19804;SDS011;10062;51.052;13.756;2022-08-11T03:15:19;12.03;;;4.40;;
19804;SDS011;10062;51.052;13.756;2022-08-11T03:18:30;7.07;;;3.90;;
19804;SDS011;10062;51.052;13.756;2022-08-11T03:21:08;9.77;;;4.43;;
19804;SDS011;10062;51.052;13.756;2022-08-11T03:23:47;8.57;;;4.40;;
19804;SDS011;10062;51.052;13.756;2022-08-11T03:26:27;6.43;;;4.20;;
19804;SDS011;10062;51.052;13.756;2022-08-11T03:29:03;7.77;;;4.53;;
19804;SDS011;10062;51.052;13.756;2022-08-11T03:31:39;7.93;;;4.43;;
19804;SDS011;10062;51.052;13.756;2022-08-11T03:34:21;6.90;;;4.30;;
19804;SDS011;10062;51.052;13.756;2022-08-11T03:40:17;7.53;;;4.13;;
19804;SDS011;10062;51.052;13.756;2022-08-11T03:43:17;7.03;;;4.10;;
19804;SDS011;10062;51.052;13.756;2022-08-11T03:45:59;10.00;;;4.37;;
19804;SDS011;10062;51.052;13.756;2022-08-11T03:48:38;7.80;;;4.20;;
19804;SDS011;10062;51.052;13.756;2022-08-11T03:51:21;9.97;;;5.10;;
19804;SDS011;10062;51.052;13.756;2022-08-11T03:54:05;7.80;;;4.83;;
19804;SDS011;10062;51.052;13.756;2022-08-11T03:57:11;9.07;;;5.27;;
19804;SDS011;10062;51.052;13.756;2022-08-11T04:00:10;6.80;;;5.03;;
19804;SDS011;10062;51.052;13.756;2022-08-11T04:09:19;11.17;;;5.37;;
19804;SDS011;10062;51.052;13.756;2022-08-11T04:12:37;10.73;;;4.77;;
19804;SDS011;10062;51.052;13.756;2022-08-11T04:15:44;9.60;;;4.30;;
19804;SDS011;10062;51.052;13.756;2022-08-11T04:18:45;8.10;;;5.13;;
19804;SDS011;10062;51.052;13.756;2022-08-11T04:21:43;9.20;;;5.27;;
19804;SDS011;10062;51.052;13.756;2022-08-11T04:27:43;6.70;;;4.47;;
19804;SDS011;10062;51.052;13.756;2022-08-11T04:30:41;8.20;;;4.83;;
19804;SDS011;10062;51.052;13.756;2022-08-11T04:33:35;11.50;;;4.97;;
19804;SDS011;10062;51.052;13.756;2022-08-11T04:36:34;11.93;;;5.43;;
19804;SDS011;10062;51.052;13.756;2022-08-11T04:39:38;7.63;;;4.97;;
19804;SDS011;10062;51.052;13.756;2022-08-11T04:42:31;8.27;;;5.20;;
19804;SDS011;10062;51.052;13.756;2022-08-11T04:46:00;8.97;;;5.20;;
19804;SDS011;10062;51.052;13.756;2022-08-11T04:48:46;8.23;;;5.00;;
19804;SDS011;10062;51.052;13.756;2022-08-11T04:52:04;8.13;;;4.40;;
19804;SDS011;10062;51.052;13.756;2022-08-11T04:55:19;10.50;;;4.77;;
19804;SDS011;10062;51.052;13.756;2022-08-11T04:58:42;11.57;;;6.87;;
19804;SDS011;10062;51.052;13.756;2022-08-11T05:01:54;14.30;;;5.77;;
19804;SDS011;10062;51.052;13.756;2022-08-11T05:04:52;9.83;;;4.63;;
19804;SDS011;10062;51.052;13.756;2022-08-11T05:07:58;8.37;;;4.80;;
19804;SDS011;10062;51.052;13.756;2022-08-11T05:11:06;10.83;;;5.60;;
19804;SDS011;10062;51.052;13.756;2022-08-11T05:14:03;7.73;;;5.50;;
19804;SDS011;10062;51.052;13.756;2022-08-11T05:17:21;8.00;;;5.57;;
19804;SDS011;10062;51.052;13.756;2022-08-11T05:20:15;10.63;;;4.90;;
19804;SDS011;10062;51.052;13.756;2022-08-11T05:23:05;6.90;;;4.50;;
19804;SDS011;10062;51.052;13.756;2022-08-11T05:25:58;7.00;;;5.03;;
19804;SDS011;10062;51.052;13.756;2022-08-11T05:28:52;12.00;;;4.80;;
19804;SDS011;10062;51.052;13.756;2022-08-11T05:31:45;7.57;;;5.00;;
19804;SDS011;10062;51.052;13.756;2022-08-11T05:34:42;9.97;;;5.37;;
19804;SDS011;10062;51.052;13.756;2022-08-11T05:37:22;12.50;;;5.40;;
19804;SDS011;10062;51.052;13.756;2022-08-11T05:40:04;11.83;;;5.10;;
19804;SDS011;10062;51.052;13.756;2022-08-11T05:42:57;8.63;;;4.77;;
19804;SDS011;10062;51.052;13.756;2022-08-11T05:45:56;9.63;;;4.87;;
19804;SDS011;10062;51.052;13.756;2022-08-11T05:48:47;9.33;;;5.93;;
19804;SDS011;10062;51.052;13.756;2022-08-11T05:51:38;8.53;;;5.20;;
19804;SDS011;10062;51.052;13.756;2022-08-11T05:54:29;9.63;;;4.70;;
19804;SDS011;10062;51.052;13.756;2022-08-11T05:57:19;9.97;;;4.77;;
19804;SDS011;10062;51.052;13.756;2022-08-11T05:59:57;10.60;;;4.93;;
19804;SDS011;10062;51.052;13.756;2022-08-11T06:02:32;6.57;;;4.43;;
19804;SDS011;10062;51.052;13.756;2022-08-11T06:05:10;9.63;;;5.10;;
19804;SDS011;10062;51.052;13.756;2022-08-11T06:07:43;8.30;;;5.07;;
19804;SDS011;10062;51.052;13.756;2022-08-11T06:10:25;10.43;;;5.30;;
19804;SDS011;10062;51.052;13.756;2022-08-11T06:12:59;8.73;;;4.83;;
19804;SDS011;10062;51.052;13.756;2022-08-11T06:15:33;9.23;;;4.33;;
19804;SDS011;10062;51.052;13.756;2022-08-11T06:18:15;8.57;;;4.87;;
19804;SDS011;10062;51.052;13.756;2022-08-11T06:20:48;12.50;;;4.30;;
19804;SDS011;10062;51.052;13.756;2022-08-11T06:23:21;9.67;;;5.37;;
19804;SDS011;10062;51.052;13.756;2022-08-11T06:25:55;9.27;;;4.10;;
19804;SDS011;10062;51.052;13.756;2022-08-11T06:28:30;8.90;;;4.30;;
19804;SDS011;10062;51.052;13.756;2022-08-11T06:31:10;9.33;;;4.53;;
19804;SDS011;10062;51.052;13.756;2022-08-11T06:33:51;6.10;;;4.50;;
19804;SDS011;10062;51.052;13.756;2022-08-11T06:36:31;7.73;;;4.67;;
19804;SDS011;10062;51.052;13.756;2022-08-11T06:39:21;10.93;;;4.70;;
19804;SDS011;10062;51.052;13.756;2022-08-11T06:42:01;8.33;;;4.97;;
19804;SDS011;10062;51.052;13.756;2022-08-11T06:44:52;6.90;;;4.03;;
19804;SDS011;10062;51.052;13.756;2022-08-11T06:47:34;8.23;;;4.07;;
19804;SDS011;10062;51.052;13.756;2022-08-11T06:50:07;6.30;;;3.73;;
19804;SDS011;10062;51.052;13.756;2022-08-11T06:52:56;10.00;;;4.17;;
19804;SDS011;10062;51.052;13.756;2022-08-11T06:55:28;6.33;;;3.70;;
19804;SDS011;10062;51.052;13.756;2022-08-11T06:58:20;6.40;;;4.10;;
19804;SDS011;10062;51.052;13.756;2022-08-11T07:01:10;8.03;;;3.67;;
19804;SDS011;10062;51.052;13.756;2022-08-11T07:03:46;7.57;;;4.03;;
19804;SDS011;10062;51.052;13.756;2022-08-11T07:06:27;7.30;;;3.90;;
19804;SDS011;10062;51.052;13.756;2022-08-11T07:09:22;7.03;;;4.07;;
19804;SDS011;10062;51.052;13.756;2022-08-11T07:12:33;6.20;;;3.40;;
19804;SDS011;10062;51.052;13.756;2022-08-11T07:15:29;8.10;;;4.60;;
19804;SDS011;10062;51.052;13.756;2022-08-11T07:18:19;15.70;;;8.73;;
19804;SDS011;10062;51.052;13.756;2022-08-11T07:21:12;10.13;;;6.30;;
19804;SDS011;10062;51.052;13.756;2022-08-11T07:24:10;6.23;;;3.60;;
19804;SDS011;10062;51.052;13.756;2022-08-11T07:27:03;6.93;;;3.70;;
19804;SDS011;10062;51.052;13.756;2022-08-11T07:29:57;7.67;;;3.30;;
19804;SDS011;10062;51.052;13.756;2022-08-11T07:32:35;6.88;;;3.17;;
19804;SDS011;10062;51.052;13.756;2022-08-11T07:35:12;5.50;;;3.60;;
19804;SDS011;10062;51.052;13.756;2022-08-11T07:37:49;12.88;;;3.70;;
19804;SDS011;10062;51.052;13.756;2022-08-11T07:40:27;7.28;;;3.13;;
19804;SDS011;10062;51.052;13.756;2022-08-11T07:43:00;8.55;;;3.88;;
19804;SDS011;10062;51.052;13.756;2022-08-11T07:45:33;7.97;;;3.17;;
19804;SDS011;10062;51.052;13.756;2022-08-11T07:48:22;4.85;;;2.58;;
19804;SDS011;10062;51.052;13.756;2022-08-11T07:51:12;4.65;;;2.60;;
19804;SDS011;10062;51.052;13.756;2022-08-11T07:54:05;4.85;;;2.65;;
19804;SDS011;10062;51.052;13.756;2022-08-11T07:56:39;4.95;;;3.20;;
19804;SDS011;10062;51.052;13.756;2022-08-11T07:59:12;5.07;;;2.83;;
19804;SDS011;10062;51.052;13.756;2022-08-11T08:02:01;7.78;;;3.00;;
19804;SDS011;10062;51.052;13.756;2022-08-11T08:04:51;6.72;;;3.10;;
19804;SDS011;10062;51.052;13.756;2022-08-11T08:07:41;8.27;;;2.85;;
19804;SDS011;10062;51.052;13.756;2022-08-11T08:10:30;6.00;;;2.67;;
19804;SDS011;10062;51.052;13.756;2022-08-11T08:13:21;5.20;;;2.90;;
19804;SDS011;10062;51.052;13.756;2022-08-11T08:16:10;7.93;;;2.90;;
19804;SDS011;10062;51.052;13.756;2022-08-11T08:19:00;4.78;;;2.40;;
19804;SDS011;10062;51.052;13.756;2022-08-11T08:21:32;7.90;;;3.35;;
19804;SDS011;10062;51.052;13.756;2022-08-11T08:24:04;7.30;;;2.50;;
19804;SDS011;10062;51.052;13.756;2022-08-11T08:26:37;7.47;;;2.90;;
19804;SDS011;10062;51.052;13.756;2022-08-11T08:29:30;4.22;;;2.15;;
19804;SDS011;10062;51.052;13.756;2022-08-11T08:32:22;3.85;;;2.50;;
19804;SDS011;10062;51.052;13.756;2022-08-11T08:34:54;4.10;;;2.28;;
19804;SDS011;10062;51.052;13.756;2022-08-11T08:37:28;4.63;;;2.50;;
19804;SDS011;10062;51.052;13.756;2022-08-11T08:39:59;9.45;;;2.40;;
19804;SDS011;10062;51.052;13.756;2022-08-11T08:42:34;5.63;;;3.75;;
19804;SDS011;10062;51.052;13.756;2022-08-11T08:45:11;8.27;;;2.42;;
19804;SDS011;10062;51.052;13.756;2022-08-11T08:47:50;6.40;;;3.45;;
19804;SDS011;10062;51.052;13.756;2022-08-11T08:50:30;6.85;;;2.70;;
19804;SDS011;10062;51.052;13.756;2022-08-11T08:53:22;4.70;;;2.20;;
19804;SDS011;10062;51.052;13.756;2022-08-11T08:55:58;5.80;;;2.47;;
19804;SDS011;10062;51.052;13.756;2022-08-11T08:58:32;6.22;;;2.92;;
19804;SDS011;10062;51.052;13.756;2022-08-11T09:01:07;6.68;;;2.35;;
19804;SDS011;10062;51.052;13.756;2022-08-11T09:03:41;4.22;;;2.20;;
19804;SDS011;10062;51.052;13.756;2022-08-11T09:06:14;4.97;;;2.25;;
19804;SDS011;10062;51.052;13.756;2022-08-11T09:08:46;5.10;;;2.55;;
19804;SDS011;10062;51.052;13.756;2022-08-11T09:11:18;5.32;;;2.28;;
19804;SDS011;10062;51.052;13.756;2022-08-11T09:14:11;8.63;;;2.20;;
19804;SDS011;10062;51.052;13.756;2022-08-11T09:16:44;3.88;;;1.95;;
19804;SDS011;10062;51.052;13.756;2022-08-11T09:19:19;7.45;;;2.50;;
19804;SDS011;10062;51.052;13.756;2022-08-11T09:21:51;7.43;;;2.47;;
19804;SDS011;10062;51.052;13.756;2022-08-11T09:24:37;8.13;;;2.60;;
19804;SDS011;10062;51.052;13.756;2022-08-11T09:27:28;6.72;;;2.17;;
19804;SDS011;10062;51.052;13.756;2022-08-11T09:30:00;3.38;;;1.90;;
19804;SDS011;10062;51.052;13.756;2022-08-11T09:32:33;6.82;;;2.20;;
19804;SDS011;10062;51.052;13.756;2022-08-11T09:35:06;8.25;;;2.00;;
19804;SDS011;10062;51.052;13.756;2022-08-11T09:37:39;5.18;;;2.10;;
19804;SDS011;10062;51.052;13.756;2022-08-11T09:40:28;4.07;;;1.90;;
19804;SDS011;10062;51.052;13.756;2022-08-11T09:43:01;5.25;;;2.20;;
19804;SDS011;10062;51.052;13.756;2022-08-11T09:45:52;7.00;;;2.80;;
19804;SDS011;10062;51.052;13.756;2022-08-11T09:48:26;5.05;;;2.00;;
19804;SDS011;10062;51.052;13.756;2022-08-11T09:51:02;4.53;;;2.28;;
19804;SDS011;10062;51.052;13.756;2022-08-11T09:53:36;7.28;;;2.20;;
19804;SDS011;10062;51.052;13.756;2022-08-11T09:56:10;3.35;;;1.98;;
19804;SDS011;10062;51.052;13.756;2022-08-11T09:59:03;6.90;;;2.22;;
19804;SDS011;10062;51.052;13.756;2022-08-11T10:01:37;5.78;;;2.40;;
19804;SDS011;10062;51.052;13.756;2022-08-11T10:04:13;5.72;;;2.45;;
19804;SDS011;10062;51.052;13.756;2022-08-11T10:06:47;5.03;;;2.30;;
19804;SDS011;10062;51.052;13.756;2022-08-11T10:09:37;5.70;;;1.98;;
19804;SDS011;10062;51.052;13.756;2022-08-11T10:12:13;6.32;;;1.88;;
19804;SDS011;10062;51.052;13.756;2022-08-11T10:14:51;6.57;;;1.98;;
19804;SDS011;10062;51.052;13.756;2022-08-11T10:17:43;8.98;;;2.20;;
19804;SDS011;10062;51.052;13.756;2022-08-11T10:20:34;5.60;;;1.95;;
19804;SDS011;10062;51.052;13.756;2022-08-11T10:23:08;8.05;;;2.20;;
19804;SDS011;10062;51.052;13.756;2022-08-11T10:26:00;4.55;;;1.88;;
19804;SDS011;10062;51.052;13.756;2022-08-11T10:28:59;4.00;;;2.00;;
19804;SDS011;10062;51.052;13.756;2022-08-11T10:31:52;4.90;;;2.00;;
19804;SDS011;10062;51.052;13.756;2022-08-11T10:34:44;4.40;;;2.10;;
19804;SDS011;10062;51.052;13.756;2022-08-11T10:37:19;6.20;;;2.00;;
19804;SDS011;10062;51.052;13.756;2022-08-11T10:39:53;3.50;;;2.03;;
19804;SDS011;10062;51.052;13.756;2022-08-11T10:42:26;4.15;;;1.70;;
19804;SDS011;10062;51.052;13.756;2022-08-11T10:45:16;3.17;;;1.90;;
19804;SDS011;10062;51.052;13.756;2022-08-11T10:48:06;3.38;;;1.90;;
19804;SDS011;10062;51.052;13.756;2022-08-11T10:50:39;6.68;;;1.90;;
19804;SDS011;10062;51.052;13.756;2022-08-11T10:53:33;7.40;;;2.42;;
19804;SDS011;10062;51.052;13.756;2022-08-11T10:56:23;4.25;;;2.00;;
19804;SDS011;10062;51.052;13.756;2022-08-11T10:59:16;6.30;;;2.05;;
19804;SDS011;10062;51.052;13.756;2022-08-11T11:01:48;4.63;;;1.67;;
19804;SDS011;10062;51.052;13.756;2022-08-11T11:04:23;3.40;;;1.58;;
19804;SDS011;10062;51.052;13.756;2022-08-11T11:07:02;6.13;;;2.28;;
19804;SDS011;10062;51.052;13.756;2022-08-11T11:09:46;5.97;;;1.80;;
19804;SDS011;10062;51.052;13.756;2022-08-11T11:12:22;3.40;;;1.63;;
19804;SDS011;10062;51.052;13.756;2022-08-11T11:15:15;5.20;;;1.63;;
19804;SDS011;10062;51.052;13.756;2022-08-11T11:18:07;6.40;;;1.80;;
19804;SDS011;10062;51.052;13.756;2022-08-11T11:20:42;2.78;;;1.55;;
19804;SDS011;10062;51.052;13.756;2022-08-11T11:23:17;4.55;;;1.60;;
19804;SDS011;10062;51.052;13.756;2022-08-11T11:25:54;3.45;;;1.75;;
19804;SDS011;10062;51.052;13.756;2022-08-11T11:28:46;5.18;;;1.55;;
19804;SDS011;10062;51.052;13.756;2022-08-11T11:31:33;3.33;;;1.70;;
19804;SDS011;10062;51.052;13.756;2022-08-11T11:34:22;3.75;;;1.20;;
19804;SDS011;10062;51.052;13.756;2022-08-11T11:37:17;4.13;;;1.42;;
19804;SDS011;10062;51.052;13.756;2022-08-11T11:39:49;3.08;;;1.50;;
19804;SDS011;10062;51.052;13.756;2022-08-11T11:42:23;4.63;;;1.90;;
19804;SDS011;10062;51.052;13.756;2022-08-11T11:44:56;4.07;;;1.55;;
19804;SDS011;10062;51.052;13.756;2022-08-11T11:47:28;3.92;;;1.50;;
19804;SDS011;10062;51.052;13.756;2022-08-11T11:50:02;3.88;;;1.20;;
19804;SDS011;10062;51.052;13.756;2022-08-11T11:52:35;6.28;;;1.90;;
19804;SDS011;10062;51.052;13.756;2022-08-11T11:55:09;3.72;;;1.58;;
19804;SDS011;10062;51.052;13.756;2022-08-11T11:57:42;4.93;;;1.30;;
19804;SDS011;10062;51.052;13.756;2022-08-11T12:00:33;5.63;;;1.30;;
19804;SDS011;10062;51.052;13.756;2022-08-11T12:03:22;2.67;;;1.38;;
19804;SDS011;10062;51.052;13.756;2022-08-11T12:05:55;3.17;;;1.52;;
19804;SDS011;10062;51.052;13.756;2022-08-11T12:08:27;3.38;;;1.23;;
19804;SDS011;10062;51.052;13.756;2022-08-11T12:11:00;6.05;;;1.45;;
19804;SDS011;10062;51.052;13.756;2022-08-11T12:13:52;2.42;;;1.20;;
19804;SDS011;10062;51.052;13.756;2022-08-11T12:16:27;3.28;;;1.05;;
19804;SDS011;10062;51.052;13.756;2022-08-11T12:18:59;2.78;;;1.17;;
19804;SDS011;10062;51.052;13.756;2022-08-11T12:21:33;3.15;;;1.00;;
19804;SDS011;10062;51.052;13.756;2022-08-11T12:24:06;3.78;;;1.20;;
19804;SDS011;10062;51.052;13.756;2022-08-11T12:26:55;2.97;;;1.30;;
19804;SDS011;10062;51.052;13.756;2022-08-11T12:29:48;4.93;;;1.40;;
19804;SDS011;10062;51.052;13.756;2022-08-11T12:32:26;3.92;;;1.70;;
19804;SDS011;10062;51.052;13.756;2022-08-11T12:34:59;4.63;;;1.45;;
19804;SDS011;10062;51.052;13.756;2022-08-11T12:37:32;3.40;;;1.15;;
19804;SDS011;10062;51.052;13.756;2022-08-11T12:40:08;4.57;;;1.58;;
19804;SDS011;10062;51.052;13.756;2022-08-11T12:43:01;4.30;;;2.00;;
19804;SDS011;10062;51.052;13.756;2022-08-11T12:45:54;6.18;;;1.58;;
19804;SDS011;10062;51.052;13.756;2022-08-11T12:48:31;5.80;;;1.60;;
19804;SDS011;10062;51.052;13.756;2022-08-11T12:51:24;3.55;;;1.40;;
19804;SDS011;10062;51.052;13.756;2022-08-11T12:54:18;5.30;;;1.20;;
19804;SDS011;10062;51.052;13.756;2022-08-11T12:56:57;3.25;;;1.23;;
19804;SDS011;10062;51.052;13.756;2022-08-11T12:59:48;3.53;;;1.30;;
19804;SDS011;10062;51.052;13.756;2022-08-11T13:02:40;2.50;;;1.10;;
19804;SDS011;10062;51.052;13.756;2022-08-11T13:05:29;4.32;;;1.27;;
19804;SDS011;10062;51.052;13.756;2022-08-11T13:08:02;2.33;;;0.90;;
19804;SDS011;10062;51.052;13.756;2022-08-11T13:10:35;2.53;;;1.38;;
19804;SDS011;10062;51.052;13.756;2022-08-11T13:13:26;6.28;;;1.50;;
19804;SDS011;10062;51.052;13.756;2022-08-11T13:15:57;4.18;;;1.50;;
19804;SDS011;10062;51.052;13.756;2022-08-11T13:18:31;4.97;;;1.30;;
19804;SDS011;10062;51.052;13.756;2022-08-11T13:21:04;5.47;;;1.73;;
19804;SDS011;10062;51.052;13.756;2022-08-11T13:23:36;3.92;;;1.48;;
19804;SDS011;10062;51.052;13.756;2022-08-11T13:26:10;3.42;;;1.40;;
19804;SDS011;10062;51.052;13.756;2022-08-11T13:28:43;11.95;;;1.95;;
19804;SDS011;10062;51.052;13.756;2022-08-11T13:31:15;3.28;;;1.48;;
19804;SDS011;10062;51.052;13.756;2022-08-11T13:33:49;4.75;;;1.40;;
19804;SDS011;10062;51.052;13.756;2022-08-11T13:36:23;2.70;;;1.63;;
19804;SDS011;10062;51.052;13.756;2022-08-11T13:38:57;3.42;;;1.50;;
19804;SDS011;10062;51.052;13.756;2022-08-11T13:41:29;4.07;;;1.63;;
19804;SDS011;10062;51.052;13.756;2022-08-11T13:44:12;3.88;;;1.40;;
19804;SDS011;10062;51.052;13.756;2022-08-11T13:46:47;3.28;;;1.58;;
19804;SDS011;10062;51.052;13.756;2022-08-11T13:49:22;4.82;;;1.58;;
19804;SDS011;10062;51.052;13.756;2022-08-11T13:51:55;4.32;;;2.05;;
19804;SDS011;10062;51.052;13.756;2022-08-11T13:54:28;6.53;;;1.48;;
19804;SDS011;10062;51.052;13.756;2022-08-11T13:57:02;5.68;;;1.63;;
19804;SDS011;10062;51.052;13.756;2022-08-11T13:59:36;5.35;;;2.42;;
19804;SDS011;10062;51.052;13.756;2022-08-11T14:02:11;4.70;;;2.30;;
19804;SDS011;10062;51.052;13.756;2022-08-11T14:04:49;4.63;;;1.80;;
19804;SDS011;10062;51.052;13.756;2022-08-11T14:07:24;4.10;;;1.60;;
19804;SDS011;10062;51.052;13.756;2022-08-11T14:10:05;4.35;;;1.75;;
19804;SDS011;10062;51.052;13.756;2022-08-11T14:12:39;4.97;;;2.13;;
19804;SDS011;10062;51.052;13.756;2022-08-11T14:15:31;5.30;;;1.88;;
19804;SDS011;10062;51.052;13.756;2022-08-11T14:18:05;8.52;;;2.50;;
19804;SDS011;10062;51.052;13.756;2022-08-11T14:20:39;4.15;;;1.88;;
19804;SDS011;10062;51.052;13.756;2022-08-11T14:23:31;5.90;;;1.90;;
19804;SDS011;10062;51.052;13.756;2022-08-11T14:26:09;5.30;;;1.92;;
19804;SDS011;10062;51.052;13.756;2022-08-11T14:28:55;4.28;;;1.50;;
19804;SDS011;10062;51.052;13.756;2022-08-11T14:31:31;5.32;;;2.55;;
19804;SDS011;10062;51.052;13.756;2022-08-11T14:34:06;6.93;;;1.80;;
19804;SDS011;10062;51.052;13.756;2022-08-11T14:36:42;6.75;;;5.25;;
19804;SDS011;10062;51.052;13.756;2022-08-11T14:39:15;3.33;;;1.85;;
19804;SDS011;10062;51.052;13.756;2022-08-11T14:41:49;3.20;;;1.83;;
19804;SDS011;10062;51.052;13.756;2022-08-11T14:44:43;7.28;;;1.88;;
19804;SDS011;10062;51.052;13.756;2022-08-11T14:47:34;4.50;;;2.08;;
19804;SDS011;10062;51.052;13.756;2022-08-11T14:50:10;8.55;;;4.22;;
19804;SDS011;10062;51.052;13.756;2022-08-11T14:52:47;7.60;;;2.10;;
19804;SDS011;10062;51.052;13.756;2022-08-11T14:55:21;5.05;;;1.85;;
19804;SDS011;10062;51.052;13.756;2022-08-11T14:58:13;3.80;;;1.48;;
19804;SDS011;10062;51.052;13.756;2022-08-11T15:00:48;5.90;;;3.08;;
19804;SDS011;10062;51.052;13.756;2022-08-11T15:03:23;3.97;;;1.60;;
19804;SDS011;10062;51.052;13.756;2022-08-11T15:05:58;2.42;;;1.77;;
19804;SDS011;10062;51.052;13.756;2022-08-11T15:08:33;8.63;;;4.72;;
19804;SDS011;10062;51.052;13.756;2022-08-11T15:11:28;5.32;;;2.17;;
19804;SDS011;10062;51.052;13.756;2022-08-11T15:14:18;4.57;;;1.70;;
19804;SDS011;10062;51.052;13.756;2022-08-11T15:17:04;3.55;;;1.65;;
19804;SDS011;10062;51.052;13.756;2022-08-11T15:19:42;3.92;;;2.00;;
19804;SDS011;10062;51.052;13.756;2022-08-11T15:22:34;2.92;;;1.55;;
19804;SDS011;10062;51.052;13.756;2022-08-11T15:25:25;3.20;;;1.60;;
19804;SDS011;10062;51.052;13.756;2022-08-11T15:27:59;3.17;;;1.85;;
19804;SDS011;10062;51.052;13.756;2022-08-11T15:30:52;3.83;;;1.63;;
19804;SDS011;10062;51.052;13.756;2022-08-11T15:33:44;4.38;;;1.73;;
19804;SDS011;10062;51.052;13.756;2022-08-11T15:36:34;2.70;;;1.52;;
19804;SDS011;10062;51.052;13.756;2022-08-11T15:39:26;5.30;;;2.00;;
19804;SDS011;10062;51.052;13.756;2022-08-11T15:42:03;6.57;;;2.13;;
19804;SDS011;10062;51.052;13.756;2022-08-11T15:45:14;7.10;;;2.20;;
19804;SDS011;10062;51.052;13.756;2022-08-11T15:48:11;4.85;;;1.90;;
19804;SDS011;10062;51.052;13.756;2022-08-11T15:50:47;3.95;;;2.17;;
19804;SDS011;10062;51.052;13.756;2022-08-11T15:53:25;6.57;;;1.90;;
19804;SDS011;10062;51.052;13.756;2022-08-11T15:56:00;3.95;;;1.80;;
19804;SDS011;10062;51.052;13.756;2022-08-11T15:58:37;4.07;;;1.65;;
19804;SDS011;10062;51.052;13.756;2022-08-11T16:01:28;4.65;;;1.60;;
19804;SDS011;10062;51.052;13.756;2022-08-11T16:04:20;2.58;;;1.63;;
19804;SDS011;10062;51.052;13.756;2022-08-11T16:06:56;6.35;;;2.00;;
19804;SDS011;10062;51.052;13.756;2022-08-11T16:09:31;5.78;;;1.63;;
19804;SDS011;10062;51.052;13.756;2022-08-11T16:12:07;6.00;;;1.80;;
19804;SDS011;10062;51.052;13.756;2022-08-11T16:14:44;6.22;;;1.85;;
19804;SDS011;10062;51.052;13.756;2022-08-11T16:17:36;2.75;;;1.40;;
19804;SDS011;10062;51.052;13.756;2022-08-11T16:20:14;3.95;;;1.77;;
19804;SDS011;10062;51.052;13.756;2022-08-11T16:22:51;4.03;;;1.95;;
19804;SDS011;10062;51.052;13.756;2022-08-11T16:25:28;4.32;;;1.55;;
19804;SDS011;10062;51.052;13.756;2022-08-11T16:28:03;4.97;;;1.80;;
19804;SDS011;10062;51.052;13.756;2022-08-11T16:30:38;4.68;;;1.90;;
19804;SDS011;10062;51.052;13.756;2022-08-11T16:33:12;6.03;;;2.13;;
19804;SDS011;10062;51.052;13.756;2022-08-11T16:35:45;4.68;;;2.10;;
19804;SDS011;10062;51.052;13.756;2022-08-11T16:38:45;4.30;;;1.70;;